Time;durP1;ratioP1;P1;durP2;ratioP2;P2;SDS_P1;SDS_P2;PMS_P1;PMS_P2;Temp;Humidity;BMP_temperature;BMP_pressure;BME280_temperature;BME280_humidity;BME280_pressure;Samples;Min_cycle;Max_cycle;Signal;HPM_P1;HPM_P2
2021/11/13 00:00:11;;;;;;;;;;;;;;;;;;5020418;28;19921;-85
2021/11/13 00:02:36;;;;;;;;;;;;;;;;;;5037021;28;20431;-85
2021/11/13 00:05:02;;;;;;;;;;;;;;;;;;5020615;28;19925;-85
2021/11/13 00:07:27;;;;;;;;;;;;;;;;;;5053713;28;19913;-85
2021/11/13 00:09:55;;;;;;;;;;;;;;;;;;5054005;28;20260;-85
2021/11/13 00:12:21;;;;;;;;;;;;;;;;;;5020415;28;19916;-85
2021/11/13 00:14:54;;;;;;;;;;;;;;;;;;5020735;28;19931;-86
2021/11/13 00:17:21;;;;;;;;;;;;;;;;;;5033937;28;20367;-86
2021/11/13 00:19:46;;;;;;;;;;;;;;;;;;5029326;28;19928;-85
2021/11/13 00:22:14;;;;;;;;;;;;;;;;;;5019961;28;19929;-85
2021/11/13 00:24:39;;;;;;;;;;;;;;;;;;5053534;28;19960;-85
2021/11/13 00:27:06;;;;;;;;;;;;;;;;;;5020322;28;20006;-85
2021/11/13 00:29:31;;;;;;;;;;;;;;;;;;5020275;28;19926;-85
2021/11/13 00:32:00;;;;;;;;;;;;;;;;;;5053140;28;20271;-84
2021/11/13 00:34:26;;;;;;;;;;;;;;;;;;5033548;28;19925;-84
2021/11/13 00:36:52;;;;;;;;;;;;;;;;;;5017053;28;19917;-85
2021/11/13 00:39:20;;;;;;;;;;;;;;;;;;5036196;28;20007;-85
2021/11/13 00:41:45;;;;;;;;;;;;;;;;;;5052793;28;19920;-83
2021/11/13 00:44:11;;;;;;;;;;;;;;;;;;5052418;28;20012;-85
2021/11/13 00:46:38;;;;;;;;;;;;;;;;;;5019897;28;19984;-85
2021/11/13 00:49:05;;;;;;;;;;;;;;;;;;5053171;28;19917;-85
2021/11/13 00:51:30;;;;;;;;;;;;;;;;;;5036422;28;20008;-85
2021/11/13 00:53:57;;;;;;;;;;;;;;;;;;5052764;28;19999;-85
2021/11/13 00:56:24;;;;;;;;;;;;;;;;;;5052780;28;19932;-84
2021/11/13 00:58:51;;;;;;;;;;;;;;;;;;5035385;28;19960;-85
2021/11/13 01:01:17;;;;;;;;;;;;;;;;;;5052073;28;19913;-84
2021/11/13 01:03:43;;;;;;;;;;;;;;;;;;5019333;28;20303;-84
2021/11/13 01:06:09;;;;;;;;;;;;;;;;;;5052437;28;19919;-84
2021/11/13 01:08:36;;;;;;;;;;;;;;;;;;5052364;28;19936;-84
2021/11/13 01:11:01;;;;;;;;;;;;;;;;;;5033983;28;20279;-84
2021/11/13 01:13:26;;;;;;;;;;;;;;;;;;5018856;28;19925;-84
2021/11/13 01:15:52;;;;;;;;;;;;;;;;;;5018971;28;20405;-84
2021/11/13 01:18:17;;;;;;;;;;;;;;;;;;5019262;28;20374;-84
2021/11/13 01:20:45;;;;;;;;;;;;;;;;;;5010744;28;20003;-83
2021/11/13 01:23:12;;;;;;;;;;;;;;;;;;5019055;28;20311;-84
2021/11/13 01:25:37;;;;;;;;;;;;;;;;;;5051707;28;19982;-84
2021/11/13 01:28:04;;;;;;;;;;;;;;;;;;5052338;28;19948;-86
2021/11/13 01:30:29;;;;;;;;;;;;;;;;;;5026894;28;19921;-84
2021/11/13 01:32:54;;;;;;;;;;;;;;;;;;5018584;28;19966;-85
2021/11/13 01:35:22;;;;;;;;;;;;;;;;;;5019069;28;20002;-85
2021/11/13 01:37:48;;;;;;;;;;;;;;;;;;5019250;28;20456;-85
2021/11/13 01:40:15;;;;;;;;;;;;;;;;;;5019489;28;19913;-85
2021/11/13 01:42:42;;;;;;;;;;;;;;;;;;5034104;28;19921;-86
2021/11/13 01:45:07;;;;;;;;;;;;;;;;;;5051643;28;20008;-86
2021/11/13 01:47:33;;;;;;;;;;;;;;;;;;5015736;28;20067;-86
2021/11/13 01:49:59;;;;;;;;;;;;;;;;;;5018839;28;19913;-88
2021/11/13 01:52:27;;;;;;;;;;;;;;;;;;5052811;28;20271;-88
2021/11/13 01:54:53;;;;;;;;;;;;;;;;;;5052697;28;19913;-89
2021/11/13 01:57:23;;;;;;;;;;;;;;;;;;5052206;28;19963;-89
2021/11/13 01:59:51;;;;;;;;;;;;;;;;;;5036264;28;19920;-89
2021/11/13 02:02:17;;;;;;;;;;;;;;;;;;5019871;28;19920;-89
2021/11/13 02:04:46;;;;;;;;;;;;;;;;;;5036352;28;19919;-89
2021/11/13 02:07:17;;;;;;;;;;;;;;;;;;5032726;28;20727;-88
2021/11/13 02:09:43;;;;;;;;;;;;;;;;;;5016207;28;19913;-88
2021/11/13 02:12:11;;;;;;;;;;;;;;;;;;5015416;28;20283;-88
2021/11/13 02:14:39;;;;;;;;;;;;;;;;;;5032425;28;19917;-88
2021/11/13 02:17:06;;;;;;;;;;;;;;;;;;5031846;28;19917;-87
2021/11/13 02:19:34;;;;;;;;;;;;;;;;;;5032353;28;19917;-87
2021/11/13 02:22:02;;;;;;;;;;;;;;;;;;5017783;28;19917;-88
2021/11/13 02:24:30;;;;;;;;;;;;;;;;;;5052359;28;19917;-87
2021/11/13 02:26:56;;;;;;;;;;;;;;;;;;5032047;28;20383;-88
2021/11/13 02:29:22;;;;;;;;;;;;;;;;;;5015527;28;19917;-88
2021/11/13 02:31:50;;;;;;;;;;;;;;;;;;5032438;28;20279;-86
2021/11/13 02:34:17;;;;;;;;;;;;;;;;;;5023974;28;19917;-86
2021/11/13 02:36:42;;;;;;;;;;;;;;;;;;5029732;28;19921;-84
2021/11/13 02:39:09;;;;;;;;;;;;;;;;;;5050687;28;20070;-84
2021/11/13 02:41:35;;;;;;;;;;;;;;;;;;5017511;28;20302;-85
2021/11/13 02:44:00;;;;;;;;;;;;;;;;;;5050735;28;19924;-84
2021/11/13 02:46:26;;;;;;;;;;;;;;;;;;5050969;28;20009;-85
2021/11/13 02:48:53;;;;;;;;;;;;;;;;;;5018318;28;19964;-85
2021/11/13 02:51:18;;;;;;;;;;;;;;;;;;5017970;28;19952;-86
2021/11/13 02:53:45;;;;;;;;;;;;;;;;;;5034562;28;19959;-85
2021/11/13 02:56:11;;;;;;;;;;;;;;;;;;5022051;28;20007;-86
2021/11/13 02:58:38;;;;;;;;;;;;;;;;;;5021330;28;19921;-85
2021/11/13 03:01:13;;;;;;;;;;;;;;;;;;5037977;28;19991;-86
2021/11/13 03:03:39;;;;;;;;;;;;;;;;;;5022185;28;19917;-85
2021/11/13 03:06:12;;;;;;;;;;;;;;;;;;5055067;28;20122;-86
2021/11/13 03:08:41;;;;;;;;;;;;;;;;;;5035645;28;19921;-86
2021/11/13 03:11:07;;;;;;;;;;;;;;;;;;5036949;28;19913;-86
2021/11/13 03:13:33;;;;;;;;;;;;;;;;;;5021599;28;19929;-87
2021/11/13 03:16:00;;;;;;;;;;;;;;;;;;5054720;28;19939;-85
2021/11/13 03:18:26;;;;;;;;;;;;;;;;;;5021814;28;19920;-85
2021/11/13 03:20:51;;;;;;;;;;;;;;;;;;5021828;28;20412;-85
2021/11/13 03:23:19;;;;;;;;;;;;;;;;;;5021392;28;19974;-86
2021/11/13 03:25:58;;;;;;;;;;;;;;;;;;5038110;28;19917;-85
2021/11/13 03:28:25;;;;;;;;;;;;;;;;;;5054139;28;19923;-86
2021/11/13 03:30:51;;;;;;;;;;;;;;;;;;5054918;28;19916;-85
2021/11/13 03:33:18;;;;;;;;;;;;;;;;;;5054103;28;19921;-85
2021/11/13 03:35:43;;;;;;;;;;;;;;;;;;5054291;28;19917;-84
2021/11/13 03:38:15;;;;;;;;;;;;;;;;;;5054180;28;19935;-85
2021/11/13 03:40:42;;;;;;;;;;;;;;;;;;5054020;28;19916;-85
2021/11/13 03:43:08;;;;;;;;;;;;;;;;;;5053956;28;19917;-85
2021/11/13 03:45:35;;;;;;;;;;;;;;;;;;5016555;28;19925;-85
2021/11/13 03:48:01;;;;;;;;;;;;;;;;;;5032130;28;19987;-85
2021/11/13 03:50:27;;;;;;;;;;;;;;;;;;5053765;28;20450;-85
2021/11/13 03:52:53;;;;;;;;;;;;;;;;;;5053909;28;19929;-85
2021/11/13 03:55:19;;;;;;;;;;;;;;;;;;5054097;28;19917;-85
2021/11/13 03:57:45;;;;;;;;;;;;;;;;;;5053421;28;20066;-85
2021/11/13 04:00:11;;;;;;;;;;;;;;;;;;5020343;28;19921;-85
2021/11/13 04:02:36;;;;;;;;;;;;;;;;;;5025672;28;19924;-84
2021/11/13 04:05:02;;;;;;;;;;;;;;;;;;5033409;28;20319;-84
2021/11/13 04:07:27;;;;;;;;;;;;;;;;;;5016593;28;20390;-83
2021/11/13 04:09:52;;;;;;;;;;;;;;;;;;5045235;28;19912;-84
2021/11/13 04:12:18;;;;;;;;;;;;;;;;;;5053224;28;20283;-84
2021/11/13 04:14:45;;;;;;;;;;;;;;;;;;5053508;28;19920;-84
2021/11/13 04:17:12;;;;;;;;;;;;;;;;;;5020847;28;19923;-85
2021/11/13 04:19:37;;;;;;;;;;;;;;;;;;5020379;28;19921;-86
2021/11/13 04:22:04;;;;;;;;;;;;;;;;;;5053063;28;19970;-86
2021/11/13 04:24:30;;;;;;;;;;;;;;;;;;5053134;28;20287;-85
2021/11/13 04:26:56;;;;;;;;;;;;;;;;;;5019802;28;19921;-85
2021/11/13 04:29:22;;;;;;;;;;;;;;;;;;5033000;28;19928;-85
2021/11/13 04:31:49;;;;;;;;;;;;;;;;;;5029415;28;19961;-89
2021/11/13 04:34:23;;;;;;;;;;;;;;;;;;5020820;28;19924;-86
2021/11/13 04:36:52;;;;;;;;;;;;;;;;;;5034347;28;19913;-85
2021/11/13 04:39:18;;;;;;;;;;;;;;;;;;5017923;28;19921;-85
2021/11/13 04:41:44;;;;;;;;;;;;;;;;;;5053117;28;19916;-85
2021/11/13 04:44:11;;;;;;;;;;;;;;;;;;5019775;28;19943;-85
2021/11/13 04:46:38;;;;;;;;;;;;;;;;;;5023318;28;19917;-85
2021/11/13 04:49:04;;;;;;;;;;;;;;;;;;5014770;28;19917;-85
2021/11/13 04:51:29;;;;;;;;;;;;;;;;;;5019085;28;19917;-84
2021/11/13 04:53:54;;;;;;;;;;;;;;;;;;5052600;28;19974;-84
2021/11/13 04:56:20;;;;;;;;;;;;;;;;;;5019292;28;19912;-85
2021/11/13 04:58:46;;;;;;;;;;;;;;;;;;5018795;28;19958;-84
2021/11/13 05:01:12;;;;;;;;;;;;;;;;;;5015883;28;19932;-85
2021/11/13 05:03:38;;;;;;;;;;;;;;;;;;5030784;28;20020;-84
2021/11/13 05:06:03;;;;;;;;;;;;;;;;;;5035840;28;19917;-84
2021/11/13 05:08:28;;;;;;;;;;;;;;;;;;5052239;28;19913;-84
2021/11/13 05:10:54;;;;;;;;;;;;;;;;;;5052198;28;20285;-85
2021/11/13 05:13:20;;;;;;;;;;;;;;;;;;5035235;28;19968;-84
2021/11/13 05:15:46;;;;;;;;;;;;;;;;;;5052092;28;19920;-85
2021/11/13 05:18:11;;;;;;;;;;;;;;;;;;5034592;28;19923;-83
2021/11/13 05:20:36;;;;;;;;;;;;;;;;;;5018276;28;19925;-82
2021/11/13 05:23:02;;;;;;;;;;;;;;;;;;5018789;28;20015;-82
2021/11/13 05:25:27;;;;;;;;;;;;;;;;;;5018545;28;19939;-82
2021/11/13 05:27:53;;;;;;;;;;;;;;;;;;5031467;28;19924;-82
2021/11/13 05:30:19;;;;;;;;;;;;;;;;;;5034544;28;19917;-83
2021/11/13 05:32:44;;;;;;;;;;;;;;;;;;5051788;28;19917;-83
2021/11/13 05:35:11;;;;;;;;;;;;;;;;;;5018547;28;19924;-83
2021/11/13 05:37:37;;;;;;;;;;;;;;;;;;5015147;28;19931;-80
2021/11/13 05:40:04;;;;;;;;;;;;;;;;;;5015529;28;19917;-82
2021/11/13 05:42:30;;;;;;;;;;;;;;;;;;5018421;28;19929;-83
2021/11/13 05:44:56;;;;;;;;;;;;;;;;;;5032042;28;19925;-86
2021/11/13 05:47:24;;;;;;;;;;;;;;;;;;5033327;28;19917;-86
2021/11/13 05:49:51;;;;;;;;;;;;;;;;;;5018863;28;20008;-86
2021/11/13 05:52:18;;;;;;;;;;;;;;;;;;5017920;28;19917;-85
2021/11/13 05:54:45;;;;;;;;;;;;;;;;;;5045886;28;20367;-85
2021/11/13 05:57:12;;;;;;;;;;;;;;;;;;5035204;28;20340;-86
2021/11/13 05:59:39;;;;;;;;;;;;;;;;;;5035067;28;20420;-86
2021/11/13 06:02:05;;;;;;;;;;;;;;;;;;5023833;28;19917;-84
2021/11/13 06:04:30;;;;;;;;;;;;;;;;;;5050732;28;20305;-83
2021/11/13 06:06:56;;;;;;;;;;;;;;;;;;5010212;28;19928;-84
2021/11/13 06:09:21;;;;;;;;;;;;;;;;;;5051468;28;20020;-84
2021/11/13 06:11:46;;;;;;;;;;;;;;;;;;5017339;28;20371;-84
2021/11/13 06:14:12;;;;;;;;;;;;;;;;;;5051181;28;19925;-84
2021/11/13 06:16:37;;;;;;;;;;;;;;;;;;5017877;28;20458;-85
2021/11/13 06:19:04;;;;;;;;;;;;;;;;;;5016389;28;21537;-88
2021/11/13 06:21:31;;;;;;;;;;;;;;;;;;5052043;28;20290;-87
2021/11/13 06:23:58;;;;;;;;;;;;;;;;;;5019003;28;20382;-86
2021/11/13 06:26:29;;;;;;;;;;;;;;;;;;5051400;28;19913;-89
2021/11/13 06:28:57;;;;;;;;;;;;;;;;;;5034364;28;19924;-87
2021/11/13 06:31:23;;;;;;;;;;;;;;;;;;5015640;28;20299;-88
2021/11/13 06:33:51;;;;;;;;;;;;;;;;;;5027736;28;19952;-87
2021/11/13 06:36:19;;;;;;;;;;;;;;;;;;5034168;28;19917;-86
2021/11/13 06:38:45;;;;;;;;;;;;;;;;;;5018770;28;20436;-85
2021/11/13 06:41:11;;;;;;;;;;;;;;;;;;5017426;28;20294;-89
2021/11/13 06:43:37;;;;;;;;;;;;;;;;;;5051900;28;19921;-86
2021/11/13 06:46:06;;;;;;;;;;;;;;;;;;5051012;28;19923;-88
2021/11/13 06:48:31;;;;;;;;;;;;;;;;;;5051193;28;19920;-82
2021/11/13 06:50:57;;;;;;;;;;;;;;;;;;5014719;28;20008;-89
2021/11/13 06:53:25;;;;;;;;;;;;;;;;;;5026379;28;19917;-89
2021/11/13 06:55:56;;;;;;;;;;;;;;;;;;5018764;28;20276;-89
2021/11/13 06:58:25;;;;;;;;;;;;;;;;;;5018375;28;19924;-87
2021/11/13 07:00:55;;;;;;;;;;;;;;;;;;5050995;28;19928;-87
2021/11/13 07:03:24;;;;;;;;;;;;;;;;;;5018121;28;19917;-88
2021/11/13 07:05:53;;;;;;;;;;;;;;;;;;5031583;28;19950;-87
2021/11/13 07:08:21;;;;;;;;;;;;;;;;;;5022274;28;19921;-89
2021/11/13 07:10:52;;;;;;;;;;;;;;;;;;5034470;28;19916;-88
2021/11/13 07:13:28;;;;;;;;;;;;;;;;;;5031777;28;19921;-89
2021/11/13 07:15:56;;;;;;;;;;;;;;;;;;5016092;28;19917;-88
2021/11/13 07:18:26;;;;;;;;;;;;;;;;;;4999789;28;19924;-88
2021/11/13 07:20:54;;;;;;;;;;;;;;;;;;5032146;28;19936;-87
2021/11/13 07:23:23;;;;;;;;;;;;;;;;;;5015397;28;19913;-88
2021/11/13 07:25:49;;;;;;;;;;;;;;;;;;5015270;28;19920;-88
2021/11/13 07:28:20;;;;;;;;;;;;;;;;;;5014767;28;20293;-88
2021/11/13 07:30:49;;;;;;;;;;;;;;;;;;5014485;28;19917;-86
2021/11/13 07:33:15;;;;;;;;;;;;;;;;;;5014725;28;20359;-86
2021/11/13 07:35:41;;;;;;;;;;;;;;;;;;5014640;28;19979;-87
2021/11/13 07:38:07;;;;;;;;;;;;;;;;;;5014921;28;19960;-87
2021/11/13 07:40:33;;;;;;;;;;;;;;;;;;5015000;28;20003;-87
2021/11/13 07:43:00;;;;;;;;;;;;;;;;;;5017992;28;19971;-85
2021/11/13 07:45:29;;;;;;;;;;;;;;;;;;5022086;28;19975;-89
2021/11/13 07:47:57;;;;;;;;;;;;;;;;;;5038930;28;19913;-88
2021/11/13 07:50:25;;;;;;;;;;;;;;;;;;5022002;28;19916;-89
2021/11/13 07:52:52;;;;;;;;;;;;;;;;;;5022020;28;19917;-89
2021/11/13 07:55:19;;;;;;;;;;;;;;;;;;5036207;28;19916;-84
2021/11/13 07:57:44;;;;;;;;;;;;;;;;;;5046987;28;19916;-84
2021/11/13 08:00:11;;;;;;;;;;;;;;;;;;5020556;28;19921;-85
2021/11/13 08:02:37;;;;;;;;;;;;;;;;;;5020987;28;19964;-84
2021/11/13 08:05:02;;;;;;;;;;;;;;;;;;5037214;28;19924;-84
2021/11/13 08:07:28;;;;;;;;;;;;;;;;;;5020845;28;19913;-84
2021/11/13 08:09:53;;;;;;;;;;;;;;;;;;5020196;28;20298;-84
2021/11/13 08:12:18;;;;;;;;;;;;;;;;;;5019834;28;20008;-84
2021/11/13 08:14:44;;;;;;;;;;;;;;;;;;5020243;28;19948;-84
2021/11/13 08:17:09;;;;;;;;;;;;;;;;;;5037004;28;19913;-84
2021/11/13 08:19:36;;;;;;;;;;;;;;;;;;5020780;28;20201;-85
2021/11/13 08:22:01;;;;;;;;;;;;;;;;;;5020163;28;19913;-84
2021/11/13 08:24:27;;;;;;;;;;;;;;;;;;5036683;28;19917;-84
2021/11/13 08:26:53;;;;;;;;;;;;;;;;;;5036779;28;19917;-84
2021/11/13 08:29:19;;;;;;;;;;;;;;;;;;5036318;28;19936;-84
2021/11/13 08:31:45;;;;;;;;;;;;;;;;;;5020022;28;19919;-84
2021/11/13 08:34:11;;;;;;;;;;;;;;;;;;5036653;28;19917;-85
2021/11/13 08:36:36;;;;;;;;;;;;;;;;;;5036567;28;19919;-84
2021/11/13 08:39:04;;;;;;;;;;;;;;;;;;5053401;28;19917;-85
2021/11/13 08:41:29;;;;;;;;;;;;;;;;;;5019707;28;19970;-84
2021/11/13 08:43:54;;;;;;;;;;;;;;;;;;5036085;28;19921;-84
2021/11/13 08:46:20;;;;;;;;;;;;;;;;;;5036228;28;19963;-84
2021/11/13 08:48:46;;;;;;;;;;;;;;;;;;5019979;28;20004;-84
2021/11/13 08:51:11;;;;;;;;;;;;;;;;;;5036347;28;19939;-85
2021/11/13 08:53:37;;;;;;;;;;;;;;;;;;5020640;28;19921;-85
2021/11/13 08:56:02;;;;;;;;;;;;;;;;;;5056372;28;19916;-85
2021/11/13 08:58:28;;;;;;;;;;;;;;;;;;5038931;28;19963;-87
2021/11/13 09:00:59;;;;;;;;;;;;;;;;;;5019687;28;19916;-86
2021/11/13 09:03:27;;;;;;;;;;;;;;;;;;5020135;28;19913;-87
2021/11/13 09:05:55;;;;;;;;;;;;;;;;;;5020166;28;20011;-86
2021/11/13 09:08:21;;;;;;;;;;;;;;;;;;5020228;28;19920;-85
2021/11/13 09:10:46;;;;;;;;;;;;;;;;;;5020102;28;19913;-87
2021/11/13 09:13:13;;;;;;;;;;;;;;;;;;5019585;28;19920;-87
2021/11/13 09:15:38;;;;;;;;;;;;;;;;;;5019928;28;19971;-86
2021/11/13 09:18:06;;;;;;;;;;;;;;;;;;5020011;28;19964;-86
2021/11/13 09:20:31;;;;;;;;;;;;;;;;;;5019655;28;19913;-85
2021/11/13 09:22:57;;;;;;;;;;;;;;;;;;5020024;28;20012;-86
2021/11/13 09:25:23;;;;;;;;;;;;;;;;;;5019684;28;19957;-84
2021/11/13 09:27:49;;;;;;;;;;;;;;;;;;5018852;28;19913;-85
2021/11/13 09:30:20;;;;;;;;;;;;;;;;;;5019515;28;19958;-86
2021/11/13 09:32:47;;;;;;;;;;;;;;;;;;5020167;28;19913;-87
2021/11/13 09:35:13;;;;;;;;;;;;;;;;;;5020259;28;19968;-89
2021/11/13 09:37:41;;;;;;;;;;;;;;;;;;5036517;28;19966;-87
2021/11/13 09:40:07;;;;;;;;;;;;;;;;;;5036690;28;19920;-88
2021/11/13 09:42:32;;;;;;;;;;;;;;;;;;5019429;28;19916;-87
2021/11/13 09:44:58;;;;;;;;;;;;;;;;;;5020088;28;19921;-88
2021/11/13 09:47:26;;;;;;;;;;;;;;;;;;5020242;28;19912;-87
2021/11/13 09:49:52;;;;;;;;;;;;;;;;;;5019815;28;20393;-87
2021/11/13 09:52:21;;;;;;;;;;;;;;;;;;5036169;28;19927;-88
2021/11/13 09:54:49;;;;;;;;;;;;;;;;;;5032415;28;19917;-89
2021/11/13 09:57:17;;;;;;;;;;;;;;;;;;5004297;28;19913;-84
2021/11/13 09:59:44;;;;;;;;;;;;;;;;;;5034666;28;19982;-86
2021/11/13 10:02:09;;;;;;;;;;;;;;;;;;5035380;28;19919;-85
2021/11/13 10:04:35;;;;;;;;;;;;;;;;;;5034270;28;19917;-86
2021/11/13 10:07:00;;;;;;;;;;;;;;;;;;5052190;28;19913;-85
2021/11/13 10:09:25;;;;;;;;;;;;;;;;;;5034925;28;19916;-85
2021/11/13 10:11:51;;;;;;;;;;;;;;;;;;5034450;28;19917;-86
2021/11/13 10:14:30;;;;;;;;;;;;;;;;;;5018544;28;19920;-85
2021/11/13 10:16:55;;;;;;;;;;;;;;;;;;5018499;28;20264;-84
2021/11/13 10:19:22;;;;;;;;;;;;;;;;;;5018648;28;20054;-85
2021/11/13 10:21:48;;;;;;;;;;;;;;;;;;5018849;28;20711;-85
2021/11/13 10:24:17;;;;;;;;;;;;;;;;;;5018508;28;19917;-85
2021/11/13 10:26:51;;;;;;;;;;;;;;;;;;5018010;28;19917;-86
2021/11/13 10:29:19;;;;;;;;;;;;;;;;;;5017928;28;19912;-85
2021/11/13 10:31:47;;;;;;;;;;;;;;;;;;5018808;28;19913;-85
2021/11/13 10:34:17;;;;;;;;;;;;;;;;;;5034801;28;20051;-86
2021/11/13 10:36:49;;;;;;;;;;;;;;;;;;5018296;28;19932;-86
2021/11/13 10:39:16;;;;;;;;;;;;;;;;;;5018671;28;19913;-87
2021/11/13 10:41:46;;;;;;;;;;;;;;;;;;5018726;28;19964;-88
2021/11/13 10:44:14;;;;;;;;;;;;;;;;;;5018965;28;19931;-87
2021/11/13 10:46:44;;;;;;;;;;;;;;;;;;5035449;28;20389;-87
2021/11/13 10:49:11;;;;;;;;;;;;;;;;;;5019255;28;20384;-88
2021/11/13 10:51:38;;;;;;;;;;;;;;;;;;5019256;28;19994;-89
2021/11/13 10:54:10;;;;;;;;;;;;;;;;;;5019105;28;19923;-89
2021/11/13 10:56:40;;;;;;;;;;;;;;;;;;5035287;28;19917;-87
2021/11/13 10:59:06;;;;;;;;;;;;;;;;;;5018599;28;19913;-86
2021/11/13 11:01:37;;;;;;;;;;;;;;;;;;5035497;28;19919;-87
2021/11/13 11:04:09;;;;;;;;;;;;;;;;;;5035154;28;20019;-87
2021/11/13 11:06:38;;;;;;;;;;;;;;;;;;5018332;28;19912;-86
2021/11/13 11:09:16;;;;;;;;;;;;;;;;;;5018617;28;19979;-88
2021/11/13 11:11:41;;;;;;;;;;;;;;;;;;5018701;28;19924;-89
2021/11/13 11:14:10;;;;;;;;;;;;;;;;;;5018818;28;19917;-89
2021/11/13 11:16:37;;;;;;;;;;;;;;;;;;5036735;28;19913;-88
2021/11/13 11:19:05;;;;;;;;;;;;;;;;;;5023095;28;20284;-89
2021/11/13 11:21:39;;;;;;;;;;;;;;;;;;5022830;28;19920;-89
2021/11/13 11:24:08;;;;;;;;;;;;;;;;;;5038858;28;20046;-89
2021/11/13 11:26:36;;;;;;;;;;;;;;;;;;5039298;28;20375;-90
2021/11/13 11:29:03;;;;;;;;;;;;;;;;;;5022931;28;20409;-90
2021/11/13 11:31:40;;;;;;;;;;;;;;;;;;5022853;28;19920;-89
2021/11/13 11:34:16;;;;;;;;;;;;;;;;;;5039192;28;20004;-89
2021/11/13 11:36:45;;;;;;;;;;;;;;;;;;5022625;28;19979;-90
2021/11/13 11:39:12;;;;;;;;;;;;;;;;;;5038755;28;20011;-88
2021/11/13 11:41:41;;;;;;;;;;;;;;;;;;5022033;28;19962;-90
2021/11/13 11:44:10;;;;;;;;;;;;;;;;;;5038724;28;20290;-91
2021/11/13 11:46:36;;;;;;;;;;;;;;;;;;5022329;28;19912;-91
2021/11/13 11:49:04;;;;;;;;;;;;;;;;;;5022343;28;19913;-90
2021/11/13 11:51:31;;;;;;;;;;;;;;;;;;5038803;28;20003;-91
2021/11/13 11:54:00;;;;;;;;;;;;;;;;;;5025052;28;19917;-90
2021/11/13 11:56:29;;;;;;;;;;;;;;;;;;5058412;28;19916;-89
2021/11/13 11:59:01;;;;;;;;;;;;;;;;;;5058357;28;19913;-91
2021/11/13 12:01:30;;;;;;;;;;;;;;;;;;5058641;28;19917;-90
2021/11/13 12:04:30;;;;;;;;;;;;;;;;;;5058606;28;20286;-91
2021/11/13 12:06:56;;;;;;;;;;;;;;;;;;5036086;28;19912;-91
2021/11/13 12:09:34;;;;;;;;;;;;;;;;;;5041657;28;19912;-92
2021/11/13 12:13:01;;;;;;;;;;;;;;;;;;5057397;28;19917;-90
2021/11/13 12:15:28;;;;;;;;;;;;;;;;;;5037758;28;19917;-91
2021/11/13 12:18:14;;;;;;;;;;;;;;;;;;5038039;28;19913;-90
2021/11/13 12:20:45;;;;;;;;;;;;;;;;;;5021735;28;19913;-91
2021/11/13 12:23:30;;;;;;;;;;;;;;;;;;5021719;28;19917;-89
2021/11/13 12:26:02;;;;;;;;;;;;;;;;;;5037696;28;20283;-89
2021/11/13 12:29:01;;;;;;;;;;;;;;;;;;5037355;28;20035;-93
2021/11/13 12:32:02;;;;;;;;;;;;;;;;;;5054554;28;20274;-93
2021/11/13 12:35:00;;;;;;;;;;;;;;;;;;5053917;28;20285;-92
2021/11/13 12:37:34;;;;;;;;;;;;;;;;;;5053589;28;20358;-93
2021/11/13 12:40:37;;;;;;;;;;;;;;;;;;5054922;28;19958;-93
2021/11/13 12:43:07;;;;;;;;;;;;;;;;;;5037924;28;19913;-92
2021/11/13 12:45:43;;;;;;;;;;;;;;;;;;5054467;28;19919;-92
2021/11/13 12:48:25;;;;;;;;;;;;;;;;;;5021345;28;20042;-92
2021/11/13 12:51:16;;;;;;;;;;;;;;;;;;5038892;28;19928;-89
2021/11/13 12:53:51;;;;;;;;;;;;;;;;;;5021096;28;19916;-88
2021/11/13 12:56:36;;;;;;;;;;;;;;;;;;5021134;28;19920;-89
2021/11/13 12:59:03;;;;;;;;;;;;;;;;;;5037131;28;20382;-87
2021/11/13 13:01:39;;;;;;;;;;;;;;;;;;5020900;28;19966;-92
2021/11/13 13:04:11;;;;;;;;;;;;;;;;;;5021025;28;20367;-92
2021/11/13 13:07:06;;;;;;;;;;;;;;;;;;5040111;28;20011;-92
2021/11/13 13:09:51;;;;;;;;;;;;;;;;;;5053712;28;20307;-91
2021/11/13 13:12:29;;;;;;;;;;;;;;;;;;5055205;28;20355;-92
2021/11/13 13:15:05;;;;;;;;;;;;;;;;;;5054081;28;19923;-91
2021/11/13 13:17:36;;;;;;;;;;;;;;;;;;5036873;28;20371;-91
2021/11/13 13:20:06;;;;;;;;;;;;;;;;;;5037463;28;20321;-91
2021/11/13 13:22:33;;;;;;;;;;;;;;;;;;5020815;28;20294;-91
2021/11/13 13:25:04;;;;;;;;;;;;;;;;;;5036955;28;20286;-91
2021/11/13 13:27:32;;;;;;;;;;;;;;;;;;5020877;28;19913;-88
2021/11/13 13:30:00;;;;;;;;;;;;;;;;;;5019867;28;19913;-89
2021/11/13 13:32:27;;;;;;;;;;;;;;;;;;5020584;28;20372;-88
2021/11/13 13:34:54;;;;;;;;;;;;;;;;;;5020119;28;19916;-88
2021/11/13 13:37:23;;;;;;;;;;;;;;;;;;5020062;28;19923;-89
2021/11/13 13:39:52;;;;;;;;;;;;;;;;;;5035926;28;19919;-89
2021/11/13 13:42:20;;;;;;;;;;;;;;;;;;5019979;28;19924;-88
2021/11/13 13:44:48;;;;;;;;;;;;;;;;;;5019998;28;19912;-88
2021/11/13 13:47:16;;;;;;;;;;;;;;;;;;5020138;28;19913;-88
2021/11/13 13:49:45;;;;;;;;;;;;;;;;;;5036243;28;19971;-90
2021/11/13 13:52:10;;;;;;;;;;;;;;;;;;5020016;28;19923;-91
2021/11/13 13:54:41;;;;;;;;;;;;;;;;;;5020154;28;19924;-92
2021/11/13 13:57:07;;;;;;;;;;;;;;;;;;5036331;28;19944;-90
2021/11/13 13:59:38;;;;;;;;;;;;;;;;;;5019711;28;19913;-91
2021/11/13 14:02:03;;;;;;;;;;;;;;;;;;5036453;28;19966;-90
2021/11/13 14:04:30;;;;;;;;;;;;;;;;;;5036116;28;19912;-90
2021/11/13 14:07:05;;;;;;;;;;;;;;;;;;5019724;28;19974;-91
2021/11/13 14:09:34;;;;;;;;;;;;;;;;;;5019949;28;20287;-90
2021/11/13 14:12:03;;;;;;;;;;;;;;;;;;5035990;28;20370;-91
2021/11/13 14:14:30;;;;;;;;;;;;;;;;;;5035960;28;19912;-89
2021/11/13 14:16:58;;;;;;;;;;;;;;;;;;5019192;28;19916;-91
2021/11/13 14:19:27;;;;;;;;;;;;;;;;;;5035942;28;20290;-89
2021/11/13 14:22:01;;;;;;;;;;;;;;;;;;5019636;28;20032;-89
2021/11/13 14:24:29;;;;;;;;;;;;;;;;;;5019779;28;19939;-89
2021/11/13 14:27:02;;;;;;;;;;;;;;;;;;5036024;28;20256;-89
2021/11/13 14:29:32;;;;;;;;;;;;;;;;;;5035664;28;19917;-92
2021/11/13 14:32:30;;;;;;;;;;;;;;;;;;5052662;28;20003;-92
2021/11/13 14:35:17;;;;;;;;;;;;;;;;;;5052633;28;19921;-92
2021/11/13 14:38:08;;;;;;;;;;;;;;;;;;5053043;28;19917;-92
2021/11/13 14:40:38;;;;;;;;;;;;;;;;;;5019842;28;19912;-92
2021/11/13 14:43:24;;;;;;;;;;;;;;;;;;5036498;28;20433;-92
2021/11/13 14:45:54;;;;;;;;;;;;;;;;;;5019507;28;20277;-92
2021/11/13 14:52:09;;;;;;;;;;;;;;;;;;5056386;28;19919;-92
2021/11/13 14:55:26;;;;;;;;;;;;;;;;;;5049078;28;19975;-91
2021/11/13 14:58:03;;;;;;;;;;;;;;;;;;5056355;28;19948;-90
2021/11/13 15:00:30;;;;;;;;;;;;;;;;;;5022550;28;19917;-87
2021/11/13 15:03:15;;;;;;;;;;;;;;;;;;5023034;28;19930;-91
2021/11/13 15:05:45;;;;;;;;;;;;;;;;;;5039821;28;19966;-83
2021/11/13 15:08:16;;;;;;;;;;;;;;;;;;5021877;28;20346;-84
2021/11/13 15:10:41;;;;;;;;;;;;;;;;;;5037889;28;19917;-83
2021/11/13 15:13:17;;;;;;;;;;;;;;;;;;5038142;28;20003;-84
2021/11/13 15:15:44;;;;;;;;;;;;;;;;;;5021155;28;19967;-84
2021/11/13 15:18:09;;;;;;;;;;;;;;;;;;5021639;28;19999;-83
2021/11/13 15:20:36;;;;;;;;;;;;;;;;;;5021282;28;20011;-84
2021/11/13 15:23:01;;;;;;;;;;;;;;;;;;5021485;28;19959;-84
2021/11/13 15:25:27;;;;;;;;;;;;;;;;;;5021213;28;19917;-84
2021/11/13 15:27:53;;;;;;;;;;;;;;;;;;5054724;28;19917;-83
2021/11/13 15:30:18;;;;;;;;;;;;;;;;;;5053968;28;19919;-84
2021/11/13 15:32:48;;;;;;;;;;;;;;;;;;5021577;28;20370;-83
2021/11/13 15:35:14;;;;;;;;;;;;;;;;;;5038139;28;19913;-83
2021/11/13 15:37:39;;;;;;;;;;;;;;;;;;5021211;28;19966;-83
2021/11/13 15:40:14;;;;;;;;;;;;;;;;;;5054453;28;19936;-84
2021/11/13 15:42:40;;;;;;;;;;;;;;;;;;5037880;28;19966;-84
2021/11/13 15:45:07;;;;;;;;;;;;;;;;;;5036823;28;19943;-83
2021/11/13 15:47:33;;;;;;;;;;;;;;;;;;5020982;28;19913;-83
2021/11/13 15:50:01;;;;;;;;;;;;;;;;;;5020853;28;19920;-83
2021/11/13 15:52:34;;;;;;;;;;;;;;;;;;5021070;28;19916;-84
2021/11/13 15:55:00;;;;;;;;;;;;;;;;;;5017534;28;19917;-83
2021/11/13 15:57:26;;;;;;;;;;;;;;;;;;5020741;28;19962;-83
2021/11/13 15:59:52;;;;;;;;;;;;;;;;;;5036286;28;19921;-84
2021/11/13 16:02:17;;;;;;;;;;;;;;;;;;5036502;28;19917;-83
2021/11/13 16:04:43;;;;;;;;;;;;;;;;;;5037260;28;19923;-83
2021/11/13 16:07:08;;;;;;;;;;;;;;;;;;5020851;28;19971;-83
2021/11/13 16:09:33;;;;;;;;;;;;;;;;;;5037148;28;19953;-83
2021/11/13 16:12:00;;;;;;;;;;;;;;;;;;5020516;28;19920;-83
2021/11/13 16:14:25;;;;;;;;;;;;;;;;;;5036209;28;20405;-83
2021/11/13 16:16:51;;;;;;;;;;;;;;;;;;5036763;28;20003;-83
2021/11/13 16:19:17;;;;;;;;;;;;;;;;;;5036791;28;19947;-83
2021/11/13 16:21:43;;;;;;;;;;;;;;;;;;5036725;28;19917;-83
2021/11/13 16:24:09;;;;;;;;;;;;;;;;;;5053508;28;19916;-84
2021/11/13 16:26:35;;;;;;;;;;;;;;;;;;5053318;28;19920;-83
2021/11/13 16:29:01;;;;;;;;;;;;;;;;;;5036080;28;19985;-84
2021/11/13 16:31:27;;;;;;;;;;;;;;;;;;5053456;28;19924;-83
2021/11/13 16:33:52;;;;;;;;;;;;;;;;;;5036636;28;19917;-83
2021/11/13 16:36:18;;;;;;;;;;;;;;;;;;5036543;28;19917;-83
2021/11/13 16:38:43;;;;;;;;;;;;;;;;;;5020030;28;20286;-83
2021/11/13 16:41:10;;;;;;;;;;;;;;;;;;5036614;28;19913;-82
2021/11/13 16:43:39;;;;;;;;;;;;;;;;;;5036080;28;19932;-83
2021/11/13 16:46:05;;;;;;;;;;;;;;;;;;5036174;28;20289;-83
2021/11/13 16:48:32;;;;;;;;;;;;;;;;;;5019731;28;19920;-83
2021/11/13 16:50:58;;;;;;;;;;;;;;;;;;5019801;28;19913;-83
2021/11/13 16:53:23;;;;;;;;;;;;;;;;;;5015798;28;19971;-83
2021/11/13 16:55:57;;;;;;;;;;;;;;;;;;5020159;28;19921;-89
2021/11/13 16:58:29;;;;;;;;;;;;;;;;;;5053461;28;19919;-91